RS-0003 weather

Aerodrom "13.Maj"
Zemun Polje, Beograd (city), Serbia

Public forecast

Using degrees Celsius for public forecast. Weather courtesy of forecast.io.

METAR (pilot weather report)

Closest report is Belgrade Nikola Tesla Airport, 3.5 nm (6.5 km) S. Retrieved 2019/06/18 08:30 UTC (0 seconds ago):

LYBE 180830Z 32003KT 280V360 9999 FEW040 25/20 Q1017 NOSIG

TAF (pilot weather forecast)

Closest forecast is Belgrade Nikola Tesla Airport, 3.5 nm (6.5 km) S. Retrieved 2019/06/18 06:21 UTC (2 hours ago):

TAF LYBE 180500Z 1806/1906 28004KT 9999 SCT040 TX29/1814Z TN16/1903Z TEMPO 1813/1819 VRB20KT 4000 TSRA SCT030CB SCT033 TEMPO 1902/1905 3000 BR